createdAt,value
2018-07-03T00:00:02.949Z,0.00
2018-07-03T00:01:03.010Z,0.00
2018-07-03T00:02:03.069Z,0.00
2018-07-03T00:03:03.128Z,0.00
2018-07-03T00:04:03.190Z,0.00
2018-07-03T00:05:03.252Z,0.00
2018-07-03T00:06:03.310Z,0.00
2018-07-03T00:07:03.369Z,0.00
2018-07-03T00:08:03.428Z,0.00
2018-07-03T00:09:03.489Z,0.00
2018-07-03T00:10:03.548Z,0.00
2018-07-03T00:11:03.608Z,0.00
2018-07-03T00:12:03.669Z,0.00
2018-07-03T00:13:03.728Z,0.00
2018-07-03T00:14:03.789Z,0.00
2018-07-03T00:15:03.848Z,0.00
2018-07-03T00:16:03.909Z,0.00
2018-07-03T00:17:03.971Z,0.00
2018-07-03T00:18:04.029Z,0.00
2018-07-03T00:19:04.088Z,0.00
2018-07-03T00:20:04.147Z,0.00
2018-07-03T00:21:04.208Z,0.00
2018-07-03T00:22:04.271Z,0.00
2018-07-03T00:23:04.326Z,0.00
2018-07-03T00:24:04.387Z,0.00
2018-07-03T00:25:04.448Z,0.00
2018-07-03T00:26:04.508Z,0.00
2018-07-03T00:27:04.566Z,0.00
2018-07-03T00:28:04.626Z,0.00
2018-07-03T00:29:04.686Z,0.00
2018-07-03T00:30:04.747Z,0.00
2018-07-03T00:31:04.815Z,0.00
2018-07-03T00:32:04.866Z,0.00
2018-07-03T00:33:04.927Z,0.00
2018-07-03T00:34:04.987Z,0.00
2018-07-03T00:35:05.044Z,0.00
2018-07-03T00:36:05.105Z,0.00
2018-07-03T00:37:05.166Z,0.00
2018-07-03T00:38:05.475Z,0.00
2018-07-03T00:39:05.283Z,0.00
2018-07-03T00:40:05.346Z,0.00
2018-07-03T00:41:05.403Z,0.00
2018-07-03T00:42:05.463Z,0.00
2018-07-03T00:43:05.522Z,0.00
2018-07-03T00:44:05.581Z,0.00
2018-07-03T00:45:05.642Z,0.00
2018-07-03T00:46:05.703Z,0.00
2018-07-03T00:47:05.761Z,0.00
2018-07-03T00:48:05.821Z,0.00
2018-07-03T00:49:05.881Z,0.00
2018-07-03T00:50:05.940Z,0.00
2018-07-03T00:51:06.002Z,0.00
2018-07-03T00:52:06.059Z,0.00
2018-07-03T00:53:06.119Z,0.00
2018-07-03T00:54:06.181Z,0.00
2018-07-03T00:55:06.238Z,0.00
2018-07-03T00:56:06.298Z,0.00
2018-07-03T00:57:06.359Z,0.00
2018-07-03T00:58:06.418Z,0.00
2018-07-03T00:59:06.476Z,0.00
2018-07-03T01:00:06.536Z,0.00
2018-07-03T01:01:06.595Z,0.00
2018-07-03T01:02:06.658Z,0.00
2018-07-03T01:03:06.714Z,0.00
2018-07-03T01:04:06.774Z,0.00
2018-07-03T01:05:06.835Z,0.00
2018-07-03T01:06:06.894Z,0.00
2018-07-03T01:07:06.952Z,0.00
2018-07-03T01:08:07.012Z,0.00
2018-07-03T01:09:07.072Z,0.00
2018-07-03T01:10:07.131Z,0.00
2018-07-03T01:11:07.190Z,0.00
2018-07-03T01:12:07.250Z,0.00
2018-07-03T01:13:07.309Z,0.00
2018-07-03T01:14:07.369Z,0.00
2018-07-03T01:15:07.428Z,0.00
2018-07-03T01:16:07.488Z,0.00
2018-07-03T01:17:07.548Z,0.00
2018-07-03T01:18:07.608Z,0.00
2018-07-03T01:19:07.666Z,0.00
2018-07-03T01:20:07.725Z,0.00
2018-07-03T01:21:07.786Z,0.00
2018-07-03T01:22:07.844Z,0.00
2018-07-03T01:23:07.903Z,0.00
2018-07-03T01:24:07.963Z,0.00
2018-07-03T01:25:08.028Z,0.00
2018-07-03T01:26:08.087Z,0.00
2018-07-03T01:27:08.141Z,0.00
2018-07-03T01:28:08.200Z,0.00
2018-07-03T01:29:08.261Z,0.00
2018-07-03T01:30:08.320Z,0.00
2018-07-03T01:31:08.378Z,0.00
2018-07-03T01:32:08.438Z,0.00
2018-07-03T01:33:08.498Z,0.00
2018-07-03T01:34:08.807Z,0.00
2018-07-03T01:35:08.615Z,0.00
2018-07-03T01:36:08.695Z,0.00
2018-07-03T01:37:08.734Z,0.00
2018-07-03T01:38:08.794Z,0.00
2018-07-03T01:39:08.852Z,0.00
2018-07-03T01:40:08.913Z,0.00
2018-07-03T01:41:08.972Z,0.00
2018-07-03T01:42:09.031Z,0.00
2018-07-03T01:43:09.089Z,0.00
2018-07-03T01:44:09.149Z,0.00
2018-07-03T01:45:09.208Z,0.00
2018-07-03T01:46:09.270Z,0.00
2018-07-03T01:47:09.327Z,0.00
2018-07-03T01:48:09.385Z,0.00
2018-07-03T01:49:09.446Z,0.00
2018-07-03T01:50:09.504Z,0.00
2018-07-03T01:51:09.562Z,0.00
2018-07-03T01:52:09.624Z,0.00
2018-07-03T01:53:09.682Z,0.00
2018-07-03T01:54:09.741Z,0.00
2018-07-03T01:55:09.799Z,0.00
2018-07-03T01:56:09.865Z,0.00
2018-07-03T01:57:09.923Z,0.00
2018-07-03T01:58:29.182Z,0.00
2018-07-03T01:59:10.036Z,0.00
2018-07-03T02:00:10.094Z,0.00
2018-07-03T02:01:10.155Z,0.00
2018-07-03T02:02:10.213Z,0.00
2018-07-03T02:03:10.271Z,0.00
2018-07-03T02:04:10.330Z,0.00
2018-07-03T02:05:10.390Z,0.00
2018-07-03T02:06:10.449Z,0.00
2018-07-03T02:07:10.509Z,0.00
2018-07-03T02:08:10.567Z,0.00
2018-07-03T02:09:10.627Z,0.00
2018-07-03T02:10:10.685Z,0.00
2018-07-03T02:11:10.745Z,0.00
2018-07-03T02:12:10.804Z,0.00
2018-07-03T02:13:10.861Z,0.00
2018-07-03T02:14:10.921Z,0.00
2018-07-03T02:15:10.980Z,0.00
2018-07-03T02:16:11.040Z,0.00
2018-07-03T02:17:11.104Z,0.00
2018-07-03T02:18:11.157Z,0.00
2018-07-03T02:19:11.215Z,0.00
2018-07-03T02:20:11.275Z,0.00
2018-07-03T02:21:11.336Z,0.00
2018-07-03T02:22:11.393Z,0.00
2018-07-03T02:23:11.452Z,0.00
2018-07-03T02:24:11.511Z,0.00
2018-07-03T02:25:11.570Z,0.00
2018-07-03T02:26:11.630Z,0.00
2018-07-03T02:27:11.687Z,0.00
2018-07-03T02:28:11.748Z,0.00
2018-07-03T02:29:11.807Z,0.00
2018-07-03T02:30:11.865Z,0.00
2018-07-03T02:31:11.923Z,0.00
2018-07-03T02:32:11.983Z,0.00
2018-07-03T02:33:12.041Z,0.00
2018-07-03T02:34:12.101Z,0.00
2018-07-03T02:35:12.159Z,0.00
2018-07-03T02:36:12.227Z,0.00
2018-07-03T02:37:12.283Z,0.00
2018-07-03T02:38:12.336Z,0.00
2018-07-03T02:39:12.440Z,0.00
2018-07-03T02:40:12.452Z,0.00
2018-07-03T02:41:12.512Z,0.00
2018-07-03T02:42:12.570Z,0.00
2018-07-03T02:43:12.629Z,0.00
2018-07-03T02:44:12.691Z,0.00
2018-07-03T02:45:12.747Z,4.00
2018-07-03T02:46:12.806Z,4.00
2018-07-03T02:47:12.864Z,4.00
2018-07-03T02:48:12.923Z,0.00
2018-07-03T02:49:12.983Z,4.00
2018-07-03T02:50:13.043Z,4.00
2018-07-03T02:51:13.099Z,4.00
2018-07-03T02:52:13.408Z,4.00
2018-07-03T02:53:13.273Z,8.00
2018-07-03T02:54:13.276Z,8.00
2018-07-03T02:55:13.333Z,8.00
2018-07-03T02:56:13.392Z,12.00
2018-07-03T02:57:13.458Z,12.00
2018-07-03T02:58:13.510Z,12.00
2018-07-03T02:59:13.568Z,16.00
2018-07-03T03:00:13.627Z,12.00
2018-07-03T03:01:13.694Z,16.00
2018-07-03T03:02:13.745Z,20.00
2018-07-03T03:03:13.803Z,24.00
2018-07-03T03:04:13.865Z,24.00
2018-07-03T03:05:13.925Z,28.00
2018-07-03T03:06:13.979Z,32.00
2018-07-03T03:07:14.037Z,36.00
2018-07-03T03:08:14.101Z,40.00
2018-07-03T03:09:14.156Z,44.00
2018-07-03T03:10:14.214Z,52.00
2018-07-03T03:11:14.271Z,60.00
2018-07-03T03:12:14.331Z,64.00
2018-07-03T03:13:14.391Z,72.00
2018-07-03T03:14:14.447Z,80.00
2018-07-03T03:15:14.508Z,92.00
2018-07-03T03:16:14.564Z,100.00
2018-07-03T03:17:14.624Z,108.00
2018-07-03T03:18:14.686Z,120.00
2018-07-03T03:19:14.740Z,132.00
2018-07-03T03:20:14.805Z,144.00
2018-07-03T03:21:14.859Z,160.00
2018-07-03T03:22:14.919Z,172.00
2018-07-03T03:23:15.124Z,188.00
2018-07-03T03:24:15.034Z,208.00
2018-07-03T03:25:15.091Z,224.00
2018-07-03T03:26:15.152Z,240.00
2018-07-03T03:27:15.207Z,264.00
2018-07-03T03:28:15.269Z,280.00
2018-07-03T03:29:15.326Z,300.00
2018-07-03T03:30:15.384Z,320.00
2018-07-03T03:31:15.443Z,348.00
2018-07-03T03:32:15.500Z,368.00
2018-07-03T03:33:15.559Z,392.00
2018-07-03T03:34:15.617Z,420.00
2018-07-03T03:35:15.675Z,444.00
2018-07-03T03:36:15.734Z,468.00
2018-07-03T03:37:15.792Z,496.00
2018-07-03T03:38:15.853Z,520.00
2018-07-03T03:39:15.912Z,552.00
2018-07-03T03:40:15.968Z,580.00
2018-07-03T03:41:16.027Z,608.00
2018-07-03T03:42:16.085Z,640.00
2018-07-03T03:43:16.143Z,668.00
2018-07-03T03:44:16.202Z,700.00
2018-07-03T03:45:16.262Z,728.00
2018-07-03T03:46:16.320Z,760.00
2018-07-03T03:47:16.376Z,788.00
2018-07-03T03:48:16.435Z,820.00
2018-07-03T03:49:16.493Z,852.00
2018-07-03T03:50:16.552Z,880.00
2018-07-03T03:51:16.609Z,916.00
2018-07-03T03:52:16.669Z,944.00
2018-07-03T03:53:16.727Z,976.00
2018-07-03T03:54:16.786Z,1008.00
2018-07-03T03:55:16.843Z,1036.00
2018-07-03T03:56:16.901Z,1068.00
2018-07-03T03:57:16.961Z,1100.00
2018-07-03T03:58:17.019Z,1128.00
2018-07-03T03:59:17.076Z,1156.00
2018-07-03T04:00:17.175Z,1188.00
2018-07-03T04:01:17.194Z,1216.00
2018-07-03T04:02:17.312Z,1248.00
2018-07-03T04:03:17.310Z,1276.00
2018-07-03T04:04:18.170Z,1308.00
2018-07-03T04:05:17.429Z,1332.00
2018-07-03T04:06:17.485Z,1360.00
2018-07-03T04:07:17.547Z,1388.00
2018-07-03T04:08:17.601Z,1416.00
2018-07-03T04:09:17.661Z,1444.00
2018-07-03T04:10:17.721Z,1468.00
2018-07-03T04:11:17.776Z,1500.00
2018-07-03T04:12:17.835Z,1524.00
2018-07-03T04:13:17.895Z,1552.00
2018-07-03T04:14:17.952Z,1580.00
2018-07-03T04:15:18.010Z,1608.00
2018-07-03T04:16:18.069Z,1632.00
2018-07-03T04:17:18.129Z,1660.00
2018-07-03T04:18:18.187Z,1680.00
2018-07-03T04:19:18.243Z,1708.00
2018-07-03T04:20:18.302Z,1728.00
2018-07-03T04:21:18.360Z,1752.00
2018-07-03T04:22:18.419Z,1772.00
2018-07-03T04:23:18.477Z,1792.00
2018-07-03T04:24:18.537Z,1816.00
2018-07-03T04:25:18.595Z,1832.00
2018-07-03T04:26:18.652Z,1856.00
2018-07-03T04:27:18.710Z,1880.00
2018-07-03T04:28:18.769Z,1900.00
2018-07-03T04:29:18.828Z,1920.00
2018-07-03T04:30:18.888Z,1944.00
2018-07-03T04:31:18.946Z,1964.00
2018-07-03T04:32:19.003Z,1984.00
2018-07-03T04:33:19.060Z,2000.00
2018-07-03T04:34:19.120Z,2020.00
2018-07-03T04:35:19.178Z,2036.00
2018-07-03T04:36:19.238Z,2056.00
2018-07-03T04:37:19.296Z,2072.00
2018-07-03T04:38:19.354Z,2092.00
2018-07-03T04:39:19.413Z,2108.00
2018-07-03T04:40:19.722Z,2128.00
2018-07-03T04:41:19.557Z,2144.00
2018-07-03T04:42:19.590Z,2164.00
2018-07-03T04:43:19.646Z,2176.00
2018-07-03T04:44:19.704Z,2196.00
2018-07-03T04:45:19.763Z,2208.00
2018-07-03T04:46:19.822Z,2224.00
2018-07-03T04:47:19.882Z,2240.00
2018-07-03T04:48:19.938Z,2260.00
2018-07-03T04:49:19.997Z,2272.00
2018-07-03T04:50:20.056Z,2288.00
2018-07-03T04:51:20.115Z,2304.00
2018-07-03T04:52:20.177Z,2320.00
2018-07-03T04:53:20.298Z,2332.00
2018-07-03T04:54:20.291Z,2348.00
2018-07-03T04:55:20.349Z,2368.00
2018-07-03T04:56:20.408Z,2384.00
2018-07-03T04:57:20.467Z,2396.00
2018-07-03T04:58:20.525Z,2412.00
2018-07-03T04:59:20.583Z,2424.00
2018-07-03T05:00:20.643Z,2436.00
2018-07-03T05:01:20.705Z,2448.00
2018-07-03T05:02:20.760Z,2464.00
2018-07-03T05:03:20.818Z,2476.00
2018-07-03T05:04:20.877Z,2488.00
2018-07-03T05:05:20.936Z,2500.00
2018-07-03T05:06:20.995Z,2516.00
2018-07-03T05:07:21.055Z,2528.00
2018-07-03T05:08:21.111Z,2540.00
2018-07-03T05:09:21.171Z,2556.00
2018-07-03T05:10:21.231Z,2568.00
2018-07-03T05:11:21.289Z,2584.00
2018-07-03T05:12:21.348Z,2596.00
2018-07-03T05:13:21.406Z,2608.00
2018-07-03T05:14:21.465Z,2620.00
2018-07-03T05:15:21.523Z,2632.00
2018-07-03T05:16:21.582Z,2644.00
2018-07-03T05:17:21.699Z,2656.00
2018-07-03T05:18:21.702Z,2672.00
2018-07-03T05:19:21.759Z,2680.00
2018-07-03T05:20:21.818Z,2692.00
2018-07-03T05:21:21.878Z,2700.00
2018-07-03T05:22:21.936Z,2712.00
2018-07-03T05:23:21.995Z,2724.00
2018-07-03T05:24:22.055Z,2740.00
2018-07-03T05:25:22.114Z,2752.00
2018-07-03T05:26:22.173Z,2764.00
2018-07-03T05:27:22.237Z,2772.00
2018-07-03T05:28:22.290Z,2788.00
2018-07-03T05:29:22.350Z,2796.00
2018-07-03T05:30:22.410Z,2812.00
2018-07-03T05:31:22.475Z,2820.00
2018-07-03T05:32:22.527Z,2832.00
2018-07-03T05:33:22.588Z,2844.00
2018-07-03T05:34:22.646Z,2856.00
2018-07-03T05:35:22.704Z,2864.00
2018-07-03T05:36:22.764Z,2872.00
2018-07-03T05:37:22.823Z,2888.00
2018-07-03T05:38:22.885Z,2900.00
2018-07-03T05:39:22.941Z,2912.00
2018-07-03T05:40:23.001Z,2924.00
2018-07-03T05:41:23.062Z,2936.00
2018-07-03T05:42:23.270Z,2948.00
2018-07-03T05:43:23.281Z,2960.00
2018-07-03T05:44:23.269Z,2968.00
2018-07-03T05:45:23.299Z,2976.00
2018-07-03T05:46:23.358Z,2992.00
2018-07-03T05:47:23.418Z,3000.00
2018-07-03T05:48:23.476Z,3012.00
2018-07-03T05:49:23.537Z,3028.00
2018-07-03T05:50:23.595Z,3040.00
2018-07-03T05:51:24.036Z,3048.00
2018-07-03T05:52:23.714Z,3060.00
2018-07-03T05:53:24.091Z,3068.00
2018-07-03T05:54:23.836Z,3076.00
2018-07-03T05:55:23.896Z,3088.00
2018-07-03T05:56:24.047Z,3100.00
2018-07-03T05:57:24.012Z,3108.00
2018-07-03T05:58:24.072Z,3120.00
2018-07-03T05:59:24.131Z,3128.00
2018-07-03T06:00:24.191Z,3132.00
2018-07-03T06:01:24.251Z,3144.00
2018-07-03T06:02:24.310Z,3156.00
2018-07-03T06:03:24.371Z,3164.00
2018-07-03T06:04:24.431Z,3172.00
2018-07-03T06:05:24.490Z,3180.00
2018-07-03T06:06:37.289Z,3188.00
2018-07-03T06:07:24.610Z,3196.00
2018-07-03T06:08:24.670Z,3204.00
2018-07-03T06:09:24.733Z,3208.00
2018-07-03T06:10:24.789Z,3212.00
2018-07-03T06:11:24.849Z,3220.00
2018-07-03T06:12:24.909Z,3224.00
2018-07-03T06:13:24.972Z,3232.00
2018-07-03T06:14:25.040Z,3236.00
2018-07-03T06:15:25.092Z,3252.00
2018-07-03T06:16:25.158Z,3260.00
2018-07-03T06:17:25.210Z,3268.00
2018-07-03T06:18:25.270Z,3272.00
2018-07-03T06:19:25.331Z,3276.00
2018-07-03T06:20:25.391Z,3288.00
2018-07-03T06:21:25.451Z,3296.00
2018-07-03T06:22:25.511Z,3308.00
2018-07-03T06:23:25.573Z,3316.00
2018-07-03T06:24:25.632Z,3324.00
2018-07-03T06:25:25.693Z,3332.00
2018-07-03T06:26:25.762Z,3340.00
2018-07-03T06:27:25.813Z,3348.00
2018-07-03T06:28:25.874Z,3360.00
2018-07-03T06:29:25.936Z,3372.00
2018-07-03T06:30:25.997Z,3380.00
2018-07-03T06:31:26.069Z,3384.00
2018-07-03T06:32:26.117Z,3392.00
2018-07-03T06:33:26.178Z,3400.00
2018-07-03T06:34:27.126Z,3404.00
2018-07-03T06:35:26.297Z,3412.00
2018-07-03T06:36:26.359Z,3416.00
2018-07-03T06:37:26.509Z,3420.00
2018-07-03T06:38:26.480Z,3428.00
2018-07-03T06:39:26.548Z,3436.00
2018-07-03T06:40:26.631Z,3444.00
2018-07-03T06:41:26.663Z,3448.00
2018-07-03T06:42:26.724Z,3460.00
2018-07-03T06:43:26.786Z,3464.00
2018-07-03T06:44:27.095Z,3468.00
2018-07-03T06:45:26.906Z,3480.00
2018-07-03T06:46:26.967Z,3488.00
2018-07-03T06:47:27.259Z,3496.00
2018-07-03T06:48:27.722Z,3500.00
2018-07-03T06:49:27.148Z,3504.00
2018-07-03T06:50:27.211Z,3508.00
2018-07-03T06:51:27.271Z,3520.00
2018-07-03T06:52:27.332Z,3524.00
2018-07-03T06:53:27.395Z,3536.00
2018-07-03T06:54:27.457Z,3544.00
2018-07-03T06:55:27.516Z,3552.00
2018-07-03T06:56:27.577Z,3560.00
2018-07-03T06:57:27.638Z,3564.00
2018-07-03T06:58:27.700Z,3572.00
2018-07-03T06:59:27.760Z,3580.00
2018-07-03T07:00:27.823Z,3584.00
2018-07-03T07:01:27.884Z,3592.00
2018-07-03T07:02:27.947Z,3600.00
2018-07-03T07:03:28.006Z,3604.00
2018-07-03T07:04:28.068Z,3608.00
2018-07-03T07:05:28.130Z,3616.00
2018-07-03T07:06:28.191Z,3620.00
2018-07-03T07:07:28.252Z,3628.00
2018-07-03T07:08:28.321Z,3632.00
2018-07-03T07:09:28.454Z,3636.00
2018-07-03T07:10:28.439Z,3648.00
2018-07-03T07:11:28.501Z,3652.00
2018-07-03T07:12:28.561Z,3672.00
2018-07-03T07:13:28.622Z,3672.00
2018-07-03T07:14:28.683Z,3684.00
2018-07-03T07:15:28.745Z,3692.00
2018-07-03T07:16:28.807Z,3700.00
2018-07-03T07:17:28.869Z,3708.00
2018-07-03T07:18:28.933Z,3716.00
2018-07-03T07:19:28.992Z,3720.00
2018-07-03T07:20:29.054Z,3728.00
2018-07-03T07:21:29.115Z,3740.00
2018-07-03T07:22:29.177Z,3744.00
2018-07-03T07:23:29.240Z,3752.00
2018-07-03T07:24:29.303Z,3764.00
2018-07-03T07:25:29.366Z,3768.00
2018-07-03T07:26:29.430Z,3776.00
2018-07-03T07:27:29.488Z,3784.00
2018-07-03T07:28:29.549Z,3792.00
2018-07-03T07:29:29.612Z,3800.00
2018-07-03T07:30:29.696Z,3804.00
2018-07-03T07:31:29.739Z,3816.00
2018-07-03T07:32:29.798Z,3828.00
2018-07-03T07:33:29.861Z,3840.00
2018-07-03T07:34:29.926Z,3852.00
2018-07-03T07:35:29.988Z,3860.00
2018-07-03T07:36:30.048Z,3868.00
2018-07-03T07:37:30.112Z,3884.00
2018-07-03T07:38:30.172Z,3896.00
2018-07-03T07:39:30.235Z,3908.00
2018-07-03T07:40:30.299Z,3920.00
2018-07-03T07:41:30.359Z,3936.00
2018-07-03T07:42:30.422Z,3948.00
2018-07-03T07:43:30.485Z,3964.00
2018-07-03T07:44:30.546Z,3976.00
2018-07-03T07:45:30.609Z,3992.00
2018-07-03T07:46:30.676Z,4004.00
2018-07-03T07:47:30.737Z,4020.00
2018-07-03T07:48:30.797Z,4036.00
2018-07-03T07:49:30.860Z,4044.00
2018-07-03T07:50:30.923Z,4064.00
2018-07-03T07:51:30.987Z,4072.00
2018-07-03T07:52:31.201Z,4084.00
2018-07-03T07:53:31.110Z,4100.00
2018-07-03T07:54:31.174Z,4104.00
2018-07-03T07:55:31.240Z,4120.00
2018-07-03T07:56:31.299Z,4128.00
2018-07-03T07:57:31.361Z,4144.00
2018-07-03T07:58:31.425Z,4156.00
2018-07-03T07:59:31.487Z,4172.00
2018-07-03T08:00:31.554Z,4184.00
2018-07-03T08:01:31.614Z,4196.00
2018-07-03T08:02:31.678Z,4200.00
2018-07-03T08:03:31.739Z,4220.00
2018-07-03T08:04:31.804Z,4228.00
2018-07-03T08:05:31.866Z,4240.00
2018-07-03T08:06:31.931Z,4248.00
2018-07-03T08:07:32.243Z,4260.00
2018-07-03T08:08:32.058Z,4272.00
2018-07-03T08:09:32.119Z,4284.00
2018-07-03T08:10:32.183Z,4296.00
2018-07-03T08:11:32.246Z,4312.00
2018-07-03T08:12:32.309Z,4332.00
2018-07-03T08:13:32.383Z,4344.00
2018-07-03T08:14:32.435Z,4360.00
2018-07-03T08:15:32.500Z,4376.00
2018-07-03T08:16:32.566Z,4388.00
2018-07-03T08:17:32.629Z,4400.00
2018-07-03T08:18:32.694Z,4416.00
2018-07-03T08:19:32.753Z,4432.00
2018-07-03T08:20:32.817Z,4444.00
2018-07-03T08:21:32.881Z,4460.00
2018-07-03T08:22:32.945Z,4472.00
2018-07-03T08:23:33.010Z,4492.00
2018-07-03T08:24:33.075Z,4508.00
2018-07-03T08:25:33.137Z,4528.00
2018-07-03T08:26:33.257Z,4548.00
2018-07-03T08:27:33.265Z,4568.00
2018-07-03T08:28:33.337Z,4588.00
2018-07-03T08:29:33.392Z,4604.00
2018-07-03T08:30:33.459Z,4624.00
2018-07-03T08:31:33.521Z,4648.00
2018-07-03T08:32:33.585Z,4668.00
2018-07-03T08:33:33.799Z,4684.00
2018-07-03T08:34:33.713Z,4696.00
2018-07-03T08:35:33.777Z,4716.00
2018-07-03T08:36:33.841Z,4736.00
2018-07-03T08:37:33.906Z,4752.00
2018-07-03T08:38:33.973Z,4772.00
2018-07-03T08:39:34.036Z,4796.00
2018-07-03T08:40:34.099Z,4820.00
2018-07-03T08:41:34.163Z,4844.00
2018-07-03T08:42:34.228Z,4864.00
2018-07-03T08:43:34.290Z,4884.00
2018-07-03T08:44:34.357Z,4900.00
2018-07-03T08:45:34.420Z,4912.00
2018-07-03T08:46:34.495Z,4928.00
2018-07-03T08:47:34.549Z,4956.00
2018-07-03T08:48:34.614Z,4968.00
2018-07-03T08:49:34.678Z,4992.00
2018-07-03T08:50:34.743Z,5016.00
2018-07-03T08:51:34.822Z,5036.00
2018-07-03T08:52:34.871Z,5060.00
2018-07-03T08:53:34.936Z,5076.00
2018-07-03T08:54:35.311Z,5096.00
2018-07-03T08:55:35.067Z,5124.00
2018-07-03T08:56:35.131Z,5144.00
2018-07-03T08:57:35.197Z,5164.00
2018-07-03T08:58:35.263Z,5188.00
2018-07-03T08:59:35.324Z,5208.00
2018-07-03T09:00:35.389Z,5236.00
2018-07-03T09:01:35.454Z,5260.00
2018-07-03T09:02:35.519Z,5284.00
2018-07-03T09:03:35.583Z,5304.00
2018-07-03T09:04:35.650Z,5328.00
2018-07-03T09:05:35.713Z,5344.00
2018-07-03T09:06:35.779Z,5364.00
2018-07-03T09:07:35.863Z,5388.00
2018-07-03T09:08:35.908Z,5412.00
2018-07-03T09:09:35.973Z,5440.00
2018-07-03T09:10:36.039Z,5468.00
2018-07-03T09:11:36.117Z,5496.00
2018-07-03T09:12:36.167Z,5524.00
2018-07-03T09:13:36.239Z,5556.00
2018-07-03T09:14:36.298Z,5584.00
2018-07-03T09:15:36.362Z,5612.00
2018-07-03T09:16:36.429Z,5640.00
2018-07-03T09:17:36.493Z,5676.00
2018-07-03T09:18:36.558Z,5704.00
2018-07-03T09:19:36.624Z,5732.00
2018-07-03T09:20:36.688Z,5760.00
2018-07-03T09:21:36.762Z,5788.00
2018-07-03T09:22:36.837Z,5804.00
2018-07-03T09:23:36.915Z,5816.00
2018-07-03T09:24:36.952Z,5820.00
2018-07-03T09:25:37.046Z,5832.00
2018-07-03T09:26:37.114Z,5844.00
2018-07-03T09:27:37.148Z,5864.00
2018-07-03T09:28:37.212Z,5892.00
2018-07-03T09:29:37.276Z,5920.00
2018-07-03T09:30:37.352Z,5944.00
2018-07-03T09:31:37.438Z,5988.00
2018-07-03T09:32:37.473Z,6024.00
2018-07-03T09:33:37.539Z,6052.00
2018-07-03T09:34:37.955Z,6096.00
2018-07-03T09:35:38.006Z,6128.00
2018-07-03T09:36:37.736Z,6160.00
2018-07-03T09:37:37.801Z,6208.00
2018-07-03T09:38:37.867Z,6244.00
2018-07-03T09:39:37.935Z,6284.00
2018-07-03T09:40:37.999Z,6320.00
2018-07-03T09:41:38.065Z,6360.00
2018-07-03T09:42:38.131Z,6404.00
2018-07-03T09:43:38.195Z,6456.00
2018-07-03T09:44:38.264Z,6508.00
2018-07-03T09:45:38.328Z,6568.00
2018-07-03T09:46:38.393Z,6620.00
2018-07-03T09:47:38.458Z,6652.00
2018-07-03T09:48:38.525Z,6692.00
2018-07-03T09:49:38.591Z,6728.00
2018-07-03T09:50:38.661Z,6760.00
2018-07-03T09:51:38.726Z,6812.00
2018-07-03T09:52:38.790Z,6864.00
2018-07-03T09:53:38.855Z,6932.00
2018-07-03T09:54:38.942Z,6992.00
2018-07-03T09:55:38.987Z,7080.00
2018-07-03T09:56:39.053Z,7216.00
2018-07-03T09:57:39.128Z,7384.00
2018-07-03T09:58:39.186Z,7560.00
2018-07-03T09:59:39.252Z,7752.00
2018-07-03T10:00:39.318Z,7940.00
2018-07-03T10:01:39.386Z,8096.00
2018-07-03T10:02:39.452Z,8496.00
2018-07-03T10:03:39.518Z,8840.00
2018-07-03T10:04:39.587Z,9344.00
2018-07-03T10:05:39.652Z,10120.00
2018-07-03T10:06:39.720Z,12940.00
2018-07-03T10:07:39.788Z,33888.00
2018-07-03T10:08:39.854Z,60384.00
2018-07-03T10:09:39.923Z,75360.00
2018-07-03T10:10:39.991Z,76480.00
2018-07-03T10:11:40.059Z,77248.00
2018-07-03T10:12:40.129Z,77760.00
2018-07-03T10:13:40.198Z,78720.00
2018-07-03T10:14:40.267Z,78816.00
2018-07-03T10:15:40.337Z,79456.00
2018-07-03T10:16:40.407Z,79456.00
2018-07-03T10:17:40.484Z,79104.00
2018-07-03T10:18:40.550Z,80224.00
2018-07-03T10:19:40.622Z,79232.00
2018-07-03T10:20:40.691Z,78400.00
2018-07-03T10:21:40.762Z,79104.00
2018-07-03T10:22:40.835Z,80608.00
2018-07-03T10:23:40.905Z,80512.00
2018-07-03T10:24:40.980Z,80320.00
2018-07-03T10:25:41.055Z,80128.00
2018-07-03T10:26:41.123Z,79904.00
2018-07-03T10:27:41.197Z,79616.00
2018-07-03T10:28:41.271Z,78880.00
2018-07-03T10:29:41.344Z,79392.00
2018-07-03T10:30:41.418Z,79712.00
2018-07-03T10:31:41.492Z,79456.00
2018-07-03T10:32:41.567Z,79008.00
2018-07-03T10:33:41.646Z,79040.00
2018-07-03T10:34:41.715Z,78496.00
2018-07-03T10:35:41.789Z,78432.00
2018-07-03T10:36:41.865Z,78560.00
2018-07-03T10:37:41.939Z,77888.00
2018-07-03T10:38:42.015Z,77696.00
2018-07-03T10:39:42.089Z,77696.00
2018-07-03T10:40:42.164Z,77856.00
2018-07-03T10:41:42.241Z,77312.00
2018-07-03T10:42:42.316Z,76864.00
2018-07-03T10:43:42.389Z,76128.00
2018-07-03T10:44:42.467Z,75584.00
2018-07-03T10:45:42.541Z,75136.00
2018-07-03T10:46:42.618Z,75072.00
2018-07-03T10:47:42.692Z,74464.00
2018-07-03T10:48:42.930Z,73280.00
2018-07-03T10:49:42.844Z,73056.00
2018-07-03T10:50:42.920Z,72416.00
2018-07-03T10:51:42.994Z,72064.00
2018-07-03T10:52:43.076Z,71712.00
2018-07-03T10:53:43.146Z,70752.00
2018-07-03T10:54:43.239Z,70432.00
2018-07-03T10:55:43.298Z,69920.00
2018-07-03T10:56:43.375Z,68800.00
2018-07-03T10:57:43.450Z,68352.00
2018-07-03T10:58:43.530Z,67712.00
2018-07-03T10:59:43.602Z,66688.00
2018-07-03T11:00:43.681Z,65856.00
2018-07-03T11:01:43.754Z,64928.00
2018-07-03T11:02:43.838Z,63872.00
2018-07-03T11:03:43.905Z,63072.00
2018-07-03T11:04:44.132Z,62112.00
2018-07-03T11:05:44.086Z,61120.00
2018-07-03T11:06:44.135Z,60128.00
2018-07-03T11:07:44.217Z,58432.00
2018-07-03T11:08:44.285Z,58432.00
2018-07-03T11:09:44.362Z,56384.00
2018-07-03T11:10:44.439Z,57536.00
2018-07-03T11:11:44.515Z,56288.00
2018-07-03T11:12:44.592Z,56672.00
2018-07-03T11:13:44.676Z,56096.00
2018-07-03T11:14:44.744Z,56512.00
2018-07-03T11:15:44.822Z,56448.00
2018-07-03T11:16:44.898Z,52768.00
2018-07-03T11:17:44.977Z,52896.00
2018-07-03T11:18:45.051Z,56608.00
2018-07-03T11:19:45.150Z,57152.00
2018-07-03T11:20:45.203Z,57344.00
2018-07-03T11:21:45.279Z,55232.00
2018-07-03T11:22:45.356Z,53408.00
2018-07-03T11:23:45.434Z,48096.00
2018-07-03T11:24:45.509Z,54592.00
2018-07-03T11:25:45.587Z,56544.00
2018-07-03T11:26:45.665Z,54400.00
2018-07-03T11:27:45.742Z,56736.00
2018-07-03T11:28:45.818Z,48512.00
2018-07-03T11:29:45.898Z,55488.00
2018-07-03T11:30:45.973Z,37120.00
2018-07-03T11:31:46.051Z,41184.00
2018-07-03T11:32:46.129Z,56096.00
2018-07-03T11:33:46.261Z,59584.00
2018-07-03T11:34:46.284Z,59328.00
2018-07-03T11:35:46.359Z,55264.00
2018-07-03T11:36:46.437Z,55360.00
2018-07-03T11:37:46.547Z,55360.00
2018-07-03T11:38:46.594Z,55872.00
2018-07-03T11:39:46.668Z,54816.00
2018-07-03T11:40:46.748Z,53056.00
2018-07-03T11:41:46.827Z,53696.00
2018-07-03T11:42:46.904Z,53216.00
2018-07-03T11:43:46.979Z,53280.00
2018-07-03T11:44:47.094Z,53952.00
2018-07-03T11:45:47.136Z,54272.00
2018-07-03T11:46:47.215Z,54752.00
2018-07-03T11:47:47.289Z,55040.00
2018-07-03T11:48:47.368Z,38432.00
2018-07-03T11:49:47.446Z,27520.00
2018-07-03T11:50:47.524Z,24480.00
2018-07-03T11:51:47.601Z,25120.00
2018-07-03T11:52:47.680Z,24896.00
2018-07-03T11:53:47.758Z,55200.00
2018-07-03T11:54:47.837Z,56192.00
2018-07-03T11:55:47.910Z,48672.00
2018-07-03T11:56:47.988Z,44608.00
2018-07-03T11:57:48.065Z,48896.00
2018-07-03T11:58:48.143Z,43328.00
2018-07-03T11:59:48.221Z,43168.00
2018-07-03T12:00:48.295Z,39520.00
2018-07-03T12:01:48.373Z,63008.00
2018-07-03T12:02:48.449Z,64576.00
2018-07-03T12:03:48.525Z,67808.00
2018-07-03T12:04:48.602Z,72576.00
2018-07-03T12:05:48.677Z,78208.00
2018-07-03T12:06:48.755Z,85024.00
2018-07-03T12:07:48.831Z,90720.00
2018-07-03T12:08:48.907Z,99168.00
2018-07-03T12:09:48.985Z,105120.00
2018-07-03T12:10:49.063Z,111072.00
2018-07-03T12:11:49.139Z,118208.00
2018-07-03T12:12:49.232Z,125152.00
2018-07-03T12:13:49.292Z,129184.00
2018-07-03T12:14:49.371Z,129600.00
2018-07-03T12:15:49.449Z,129280.00
2018-07-03T12:16:49.526Z,126336.00
2018-07-03T12:17:49.604Z,129024.00
2018-07-03T12:18:49.681Z,128320.00
2018-07-03T12:19:49.818Z,124128.00